createdAt,value
2023-05-09T00:01:59.756Z,82.05
2023-05-09T00:04:26.244Z,76.20
2023-05-09T00:06:52.629Z,68.22
2023-05-09T00:09:19.076Z,81.18
2023-05-09T00:11:45.561Z,83.75
2023-05-09T00:14:14.849Z,79.28
2023-05-09T00:16:41.342Z,76.53
2023-05-09T00:19:07.779Z,79.32
2023-05-09T00:21:34.249Z,81.95
2023-05-09T00:24:01.089Z,76.75
2023-05-09T00:26:27.775Z,86.20
2023-05-09T00:28:54.189Z,87.53
2023-05-09T00:31:21.048Z,85.05
2023-05-09T00:33:47.464Z,81.10
2023-05-09T00:36:13.836Z,80.00
2023-05-09T00:38:40.230Z,77.28
2023-05-09T00:41:06.634Z,75.78
2023-05-09T00:43:33.093Z,89.40
2023-05-09T00:45:59.538Z,75.55
2023-05-09T00:48:26.153Z,83.18
2023-05-09T00:50:53.141Z,84.70
2023-05-09T00:53:20.700Z,79.93
2023-05-09T00:55:47.274Z,81.07
2023-05-09T00:58:13.950Z,79.63
2023-05-09T01:00:40.665Z,79.05
2023-05-09T01:03:07.555Z,85.15
2023-05-09T01:05:46.121Z,78.60
2023-05-09T01:08:36.419Z,84.82
2023-05-09T01:11:45.998Z,86.97
2023-05-09T01:14:23.152Z,76.63
2023-05-09T01:17:08.980Z,82.00
2023-05-09T01:19:57.440Z,77.30
2023-05-09T01:22:32.029Z,84.50
2023-05-09T01:25:21.720Z,78.43
2023-05-09T01:28:11.316Z,80.00
2023-05-09T01:30:38.125Z,74.20
2023-05-09T01:33:07.340Z,72.82
2023-05-09T01:35:36.378Z,83.43
2023-05-09T01:38:06.647Z,78.85
2023-05-09T01:40:33.690Z,76.25
2023-05-09T01:43:04.051Z,80.93
2023-05-09T01:45:31.457Z,84.20
2023-05-09T01:47:58.679Z,83.70
2023-05-09T01:50:25.315Z,87.45
2023-05-09T01:52:53.604Z,81.57
2023-05-09T01:55:21.569Z,83.75
2023-05-09T01:57:48.764Z,89.50
2023-05-09T02:00:15.429Z,86.30
2023-05-09T02:02:42.155Z,82.75
2023-05-09T02:05:09.830Z,81.05
2023-05-09T02:07:36.892Z,80.90
2023-05-09T02:10:04.841Z,84.32
2023-05-09T02:12:31.308Z,98.15
2023-05-09T02:14:57.806Z,83.28
2023-05-09T02:17:24.313Z,91.85
2023-05-09T02:19:50.790Z,86.03
2023-05-09T02:22:17.298Z,90.32
2023-05-09T02:24:45.111Z,98.78
2023-05-09T02:27:12.207Z,87.00
2023-05-09T02:29:49.091Z,92.55
2023-05-09T02:32:17.964Z,90.22
2023-05-09T02:34:45.348Z,94.00
2023-05-09T02:37:12.423Z,92.25
2023-05-09T02:39:38.854Z,87.22
2023-05-09T02:42:07.903Z,87.40
2023-05-09T02:44:34.680Z,91.53
2023-05-09T02:47:02.781Z,93.53
2023-05-09T02:49:32.465Z,90.57
2023-05-09T02:51:59.424Z,91.35
2023-05-09T02:54:25.891Z,89.68
2023-05-09T02:56:52.625Z,90.10
2023-05-09T02:59:20.110Z,79.47
2023-05-09T03:01:46.895Z,80.18
2023-05-09T03:04:13.468Z,83.55
2023-05-09T03:06:39.849Z,87.88
2023-05-09T03:09:07.256Z,86.15
2023-05-09T03:11:36.574Z,83.35
2023-05-09T03:14:03.730Z,82.75
2023-05-09T03:16:30.284Z,83.22
2023-05-09T03:18:57.171Z,90.38
2023-05-09T03:21:23.592Z,79.30
2023-05-09T03:23:50.050Z,79.93
2023-05-09T03:26:16.409Z,80.13
2023-05-09T03:28:42.800Z,82.93
2023-05-09T03:31:09.550Z,82.70
2023-05-09T03:33:35.982Z,79.35
2023-05-09T03:36:02.430Z,85.25
2023-05-09T03:38:28.811Z,76.30
2023-05-09T03:40:55.339Z,79.10
2023-05-09T03:43:21.769Z,82.72
2023-05-09T03:45:48.149Z,75.75
2023-05-09T03:48:14.589Z,76.95
2023-05-09T03:50:40.986Z,84.05
2023-05-09T03:53:07.423Z,83.18
2023-05-09T03:55:33.878Z,79.40
2023-05-09T03:58:00.330Z,76.38
2023-05-09T04:00:26.728Z,84.15
2023-05-09T04:02:53.650Z,77.22
2023-05-09T04:05:20.300Z,73.10
2023-05-09T04:07:46.921Z,74.32
2023-05-09T04:10:13.347Z,75.80
2023-05-09T04:12:39.822Z,79.95
2023-05-09T04:15:06.961Z,75.05
2023-05-09T04:17:33.477Z,75.78
2023-05-09T04:19:59.904Z,82.30
2023-05-09T04:22:26.313Z,79.65
2023-05-09T04:24:52.810Z,74.65
2023-05-09T04:27:19.480Z,69.10
2023-05-09T04:29:45.943Z,66.60
2023-05-09T04:32:12.393Z,75.80
2023-05-09T04:34:38.806Z,69.30
2023-05-09T04:37:05.539Z,71.70
2023-05-09T04:39:32.038Z,65.47
2023-05-09T04:41:58.496Z,70.68
2023-05-09T04:44:24.920Z,57.33
2023-05-09T04:46:51.399Z,63.72
2023-05-09T04:49:17.891Z,59.42
2023-05-09T04:51:44.323Z,56.83
2023-05-09T04:54:10.930Z,56.88
2023-05-09T04:56:37.302Z,58.67
2023-05-09T04:59:03.678Z,56.05
2023-05-09T05:01:30.881Z,58.17
2023-05-09T05:03:57.397Z,56.92
2023-05-09T05:06:23.827Z,51.55
2023-05-09T05:08:50.201Z,49.80
2023-05-09T05:11:17.908Z,49.75
2023-05-09T05:13:44.658Z,46.00
2023-05-09T05:16:11.132Z,44.88
2023-05-09T05:18:37.557Z,46.72
2023-05-09T05:21:03.938Z,46.22
2023-05-09T05:23:30.377Z,55.10
2023-05-09T05:25:56.918Z,49.80
2023-05-09T05:28:23.478Z,45.83
2023-05-09T05:30:49.915Z,47.53
2023-05-09T05:33:16.363Z,46.42
2023-05-09T05:35:42.757Z,42.75
2023-05-09T05:38:09.203Z,43.72
2023-05-09T05:40:35.590Z,49.03
2023-05-09T05:43:02.082Z,44.70
2023-05-09T05:45:30.245Z,43.55
2023-05-09T05:47:56.858Z,41.30
2023-05-09T05:50:23.268Z,40.50
2023-05-09T05:52:49.717Z,43.95
2023-05-09T05:55:16.525Z,42.97
2023-05-09T05:57:44.180Z,49.08
2023-05-09T06:00:11.538Z,44.30
2023-05-09T06:02:38.152Z,44.25
2023-05-09T06:05:05.950Z,41.55
2023-05-09T06:07:32.355Z,43.47
2023-05-09T06:09:58.763Z,38.30
2023-05-09T06:12:27.339Z,38.58
2023-05-09T06:14:54.502Z,40.28
2023-05-09T06:17:21.146Z,39.05
2023-05-09T06:19:47.539Z,37.00
2023-05-09T06:22:13.987Z,37.58
2023-05-09T06:24:40.424Z,42.20
2023-05-09T06:27:06.855Z,44.17
2023-05-09T06:29:33.291Z,46.40
2023-05-09T06:31:59.853Z,41.55
2023-05-09T06:34:26.344Z,45.97
2023-05-09T06:36:52.809Z,44.50
2023-05-09T06:39:19.549Z,38.40
2023-05-09T06:41:46.012Z,42.95
2023-05-09T06:44:12.366Z,47.78
2023-05-09T06:46:38.886Z,46.20
2023-05-09T06:49:06.056Z,43.05
2023-05-09T06:51:32.614Z,48.85
2023-05-09T06:53:59.014Z,44.53
2023-05-09T06:56:26.442Z,47.92
2023-05-09T06:58:52.923Z,45.63
2023-05-09T07:01:19.305Z,43.47
2023-05-09T07:03:47.514Z,48.28
2023-05-09T07:06:13.931Z,48.00
2023-05-09T07:08:40.491Z,51.60
2023-05-09T07:11:06.878Z,48.58
2023-05-09T07:13:33.317Z,46.58
2023-05-09T07:15:59.719Z,48.78
2023-05-09T07:18:26.155Z,41.72
2023-05-09T07:20:52.571Z,47.75
2023-05-09T07:23:19.025Z,39.40
2023-05-09T07:25:45.482Z,51.53
2023-05-09T07:28:12.713Z,43.75
2023-05-09T07:30:39.233Z,44.63
2023-05-09T07:33:06.727Z,53.00
2023-05-09T07:35:33.268Z,42.45
2023-05-09T07:37:59.645Z,41.08
2023-05-09T07:40:26.085Z,45.47
2023-05-09T07:42:54.934Z,48.42
2023-05-09T07:45:23.658Z,46.42
2023-05-09T07:47:50.628Z,46.25
2023-05-09T07:50:17.392Z,41.38
2023-05-09T07:52:43.925Z,38.47
2023-05-09T07:55:12.251Z,40.63
2023-05-09T07:57:39.835Z,43.47
2023-05-09T08:00:07.882Z,41.80
2023-05-09T08:02:34.392Z,39.97
2023-05-09T08:05:00.945Z,39.92
2023-05-09T08:07:27.393Z,38.85
2023-05-09T08:09:53.837Z,42.25
2023-05-09T08:12:20.243Z,38.55
2023-05-09T08:14:46.905Z,40.22
2023-05-09T08:17:13.332Z,44.42
2023-05-09T08:19:39.806Z,40.25
2023-05-09T08:22:06.246Z,36.08
2023-05-09T08:24:32.724Z,39.25
2023-05-09T08:26:59.878Z,37.45
2023-05-09T08:29:26.334Z,43.35
2023-05-09T08:31:52.939Z,33.28
2023-05-09T08:34:20.772Z,34.58
2023-05-09T08:36:47.175Z,34.33
2023-05-09T08:39:13.583Z,36.53
2023-05-09T08:41:40.094Z,33.95
2023-05-09T08:44:06.823Z,34.40
2023-05-09T08:46:37.143Z,35.20
2023-05-09T08:49:07.136Z,30.98
2023-05-09T08:51:34.440Z,28.90
2023-05-09T08:54:01.406Z,29.63
2023-05-09T08:56:29.022Z,29.00
2023-05-09T08:58:55.642Z,29.88
2023-05-09T09:01:23.497Z,30.05
2023-05-09T09:03:50.326Z,27.60
2023-05-09T09:06:17.504Z,30.75
2023-05-09T09:08:44.214Z,30.42
2023-05-09T09:11:13.787Z,25.52
2023-05-09T09:13:41.738Z,25.98
2023-05-09T09:16:16.642Z,30.65
2023-05-09T09:18:43.432Z,26.60
2023-05-09T09:21:10.610Z,23.90
2023-05-09T09:23:39.346Z,26.85
2023-05-09T09:26:05.754Z,23.13
2023-05-09T09:28:32.497Z,23.13
2023-05-09T09:30:58.878Z,26.73
2023-05-09T09:33:26.990Z,23.48
2023-05-09T09:35:54.806Z,23.77
2023-05-09T09:38:22.783Z,25.70
2023-05-09T09:40:52.118Z,25.83
2023-05-09T09:43:18.736Z,21.15
2023-05-09T09:45:49.042Z,23.45
2023-05-09T09:48:15.769Z,22.60
2023-05-09T09:50:42.461Z,20.33
2023-05-09T09:53:08.904Z,19.02
2023-05-09T09:55:35.747Z,23.10
2023-05-09T09:58:02.296Z,20.65
2023-05-09T10:00:28.799Z,20.95
2023-05-09T10:02:56.348Z,18.45
2023-05-09T10:05:28.404Z,19.38
2023-05-09T10:08:05.021Z,18.13
2023-05-09T10:10:33.722Z,21.42
2023-05-09T10:13:07.437Z,18.40
2023-05-09T10:15:49.353Z,18.38
2023-05-09T10:18:23.223Z,18.52
2023-05-09T10:20:50.168Z,19.27
2023-05-09T10:23:18.137Z,19.83
2023-05-09T10:25:47.560Z,18.88
2023-05-09T10:28:18.926Z,17.15
2023-05-09T10:31:03.845Z,18.05
2023-05-09T10:33:44.085Z,17.90
2023-05-09T10:36:10.977Z,19.10
2023-05-09T10:38:37.400Z,18.25
2023-05-09T10:41:04.126Z,17.80
2023-05-09T10:43:33.704Z,21.80
2023-05-09T10:46:01.640Z,17.63
2023-05-09T10:48:28.590Z,17.90
2023-05-09T10:50:55.649Z,18.52
2023-05-09T10:53:24.385Z,17.63
2023-05-09T10:55:59.039Z,19.50
2023-05-09T10:58:40.773Z,16.20
2023-05-09T11:01:07.484Z,20.95
2023-05-09T11:03:54.737Z,18.25
2023-05-09T11:06:49.308Z,15.75
2023-05-09T11:09:35.807Z,16.92
2023-05-09T11:12:04.865Z,16.02
2023-05-09T11:14:37.261Z,16.92
2023-05-09T11:17:04.561Z,14.90
2023-05-09T11:19:36.884Z,18.63
2023-05-09T11:22:13.920Z,13.85
2023-05-09T11:24:44.688Z,13.60
2023-05-09T11:27:24.553Z,14.13
2023-05-09T11:29:59.179Z,13.93
2023-05-09T11:32:32.277Z,17.42
2023-05-09T11:35:15.735Z,15.48
2023-05-09T11:37:55.021Z,16.17
2023-05-09T11:40:22.333Z,15.93
2023-05-09T11:42:51.038Z,15.93
2023-05-09T11:45:17.789Z,19.25
2023-05-09T11:47:45.804Z,15.32
2023-05-09T11:50:13.626Z,13.05
2023-05-09T11:52:40.818Z,18.35
2023-05-09T11:55:12.807Z,19.08
2023-05-09T11:57:41.291Z,16.83
2023-05-09T12:00:09.295Z,14.73
2023-05-09T12:02:36.538Z,14.68
2023-05-09T12:05:10.378Z,17.35
2023-05-09T12:07:38.028Z,14.98
2023-05-09T12:10:06.850Z,15.98
2023-05-09T12:12:37.491Z,15.70
2023-05-09T12:15:08.225Z,15.65
2023-05-09T12:17:35.505Z,16.85
2023-05-09T12:20:04.280Z,16.33
2023-05-09T12:22:30.982Z,13.75
2023-05-09T12:24:59.600Z,15.32
2023-05-09T12:27:28.262Z,13.57
2023-05-09T12:29:55.442Z,14.55
2023-05-09T12:32:21.994Z,14.73
2023-05-09T12:34:48.937Z,15.93
2023-05-09T12:37:17.307Z,14.57
2023-05-09T12:40:07.024Z,12.82
2023-05-09T12:42:35.409Z,15.23
2023-05-09T12:45:03.030Z,13.63
2023-05-09T12:47:31.001Z,13.85
2023-05-09T12:50:01.409Z,15.57
2023-05-09T12:52:46.930Z,14.40
2023-05-09T12:55:20.985Z,12.73
2023-05-09T12:57:58.303Z,14.73
2023-05-09T13:00:24.991Z,14.13
2023-05-09T13:02:52.758Z,12.77
2023-05-09T13:05:21.486Z,15.65
2023-05-09T13:07:50.140Z,14.80
2023-05-09T13:10:23.780Z,13.13
2023-05-09T13:12:51.456Z,14.25
2023-05-09T13:15:22.688Z,13.63
2023-05-09T13:17:52.692Z,14.85
2023-05-09T13:20:19.558Z,14.45
2023-05-09T13:22:46.192Z,15.32
2023-05-09T13:25:12.921Z,12.75
2023-05-09T13:27:39.407Z,14.18
2023-05-09T13:30:07.732Z,12.20
2023-05-09T13:32:34.692Z,11.93
2023-05-09T13:35:01.196Z,13.75
2023-05-09T13:37:28.058Z,12.93
2023-05-09T13:39:55.352Z,14.85
2023-05-09T13:42:21.870Z,15.07
2023-05-09T13:44:48.283Z,13.18
2023-05-09T13:47:14.663Z,12.55
2023-05-09T13:49:41.093Z,14.73
2023-05-09T13:52:08.260Z,15.93
2023-05-09T13:54:35.139Z,12.02
2023-05-09T13:57:03.510Z,12.98
2023-05-09T13:59:32.976Z,13.68
2023-05-09T14:02:00.394Z,12.68
2023-05-09T14:04:27.843Z,16.45
2023-05-09T14:06:58.705Z,10.73
2023-05-09T14:09:25.237Z,12.13
2023-05-09T14:11:52.825Z,11.32
2023-05-09T14:14:20.866Z,12.40
2023-05-09T14:16:47.793Z,12.80
2023-05-09T14:19:17.560Z,11.88
2023-05-09T14:21:44.745Z,14.85
2023-05-09T14:24:15.088Z,10.85
2023-05-09T14:26:42.354Z,11.27
2023-05-09T14:29:08.799Z,10.73
2023-05-09T14:31:35.253Z,11.05
2023-05-09T14:34:01.736Z,10.00
2023-05-09T14:36:28.795Z,11.23
2023-05-09T14:38:55.235Z,12.15
2023-05-09T14:41:22.218Z,9.52
2023-05-09T14:43:48.916Z,11.57
2023-05-09T14:46:15.555Z,8.85
2023-05-09T14:48:42.196Z,8.15
2023-05-09T14:51:08.661Z,9.18
2023-05-09T14:53:39.703Z,8.30
2023-05-09T14:56:06.870Z,9.02
2023-05-09T14:58:36.551Z,8.15
2023-05-09T15:01:04.175Z,8.90
2023-05-09T15:03:30.720Z,8.85
2023-05-09T15:05:58.611Z,9.15
2023-05-09T15:08:25.431Z,8.18
2023-05-09T15:10:51.846Z,9.88
2023-05-09T15:13:18.327Z,8.63
2023-05-09T15:15:44.848Z,11.10
2023-05-09T15:18:13.247Z,7.65
2023-05-09T15:20:39.836Z,10.60
2023-05-09T15:23:07.806Z,8.05
2023-05-09T15:25:34.508Z,9.20
2023-05-09T15:28:01.246Z,11.90
2023-05-09T15:30:27.770Z,9.10
2023-05-09T15:32:54.212Z,9.15
2023-05-09T15:35:20.774Z,10.52
2023-05-09T15:37:47.190Z,9.50
2023-05-09T15:40:13.904Z,9.13
2023-05-09T15:42:40.980Z,8.77
2023-05-09T15:45:08.126Z,7.18
2023-05-09T15:47:34.613Z,9.18
2023-05-09T15:50:01.039Z,9.60
2023-05-09T15:52:27.835Z,8.38
2023-05-09T15:54:55.253Z,7.75
2023-05-09T15:57:22.077Z,8.75
2023-05-09T15:59:48.517Z,8.48
2023-05-09T16:02:15.129Z,10.20
2023-05-09T16:04:42.481Z,10.05
2023-05-09T16:07:08.916Z,8.82
2023-05-09T16:09:35.377Z,10.82
2023-05-09T16:12:01.903Z,11.32
2023-05-09T16:14:28.361Z,11.52
2023-05-09T16:16:54.846Z,10.02
2023-05-09T16:19:21.705Z,11.60
2023-05-09T16:21:48.398Z,11.43
2023-05-09T16:24:14.840Z,12.82
2023-05-09T16:26:41.318Z,12.40
2023-05-09T16:29:07.775Z,11.45
2023-05-09T16:31:35.638Z,12.18
2023-05-09T16:34:02.919Z,12.32
2023-05-09T16:36:29.897Z,12.15
2023-05-09T16:38:56.401Z,13.68
2023-05-09T16:41:22.888Z,12.13
2023-05-09T16:43:49.344Z,12.48
2023-05-09T16:46:16.168Z,12.60
2023-05-09T16:48:42.657Z,13.48
2023-05-09T16:51:09.188Z,12.80
2023-05-09T16:53:36.280Z,11.98
2023-05-09T16:56:03.908Z,11.27
2023-05-09T16:58:30.435Z,12.57
2023-05-09T17:00:57.036Z,11.18
2023-05-09T17:03:23.861Z,13.20
2023-05-09T17:05:51.139Z,11.27
2023-05-09T17:08:17.508Z,11.50
2023-05-09T17:10:43.934Z,13.10
2023-05-09T17:13:10.447Z,13.43
2023-05-09T17:15:38.343Z,12.93
2023-05-09T17:18:05.085Z,11.90
2023-05-09T17:20:31.750Z,10.40
2023-05-09T17:22:58.178Z,9.80
2023-05-09T17:25:24.553Z,10.60
2023-05-09T17:27:50.955Z,11.40
2023-05-09T17:30:18.803Z,11.20
2023-05-09T17:32:46.734Z,11.50
2023-05-09T17:35:13.792Z,13.60
2023-05-09T17:37:40.416Z,10.43
2023-05-09T17:40:07.814Z,11.00
2023-05-09T17:42:34.294Z,11.38
2023-05-09T17:45:00.844Z,10.82
2023-05-09T17:47:28.617Z,10.98
2023-05-09T17:49:55.229Z,11.43
2023-05-09T17:52:22.111Z,10.95
2023-05-09T17:54:48.698Z,9.73
2023-05-09T17:57:15.134Z,10.15
2023-05-09T17:59:41.743Z,12.20
2023-05-09T18:02:08.240Z,10.93
2023-05-09T18:04:34.768Z,10.68
2023-05-09T18:07:01.509Z,9.05
2023-05-09T18:09:28.112Z,11.40
2023-05-09T18:11:54.532Z,10.73
2023-05-09T18:14:20.911Z,10.30
2023-05-09T18:16:47.322Z,10.15
2023-05-09T18:19:13.749Z,10.68
2023-05-09T18:21:40.484Z,11.05
2023-05-09T18:24:09.058Z,10.30
2023-05-09T18:26:35.477Z,11.48
2023-05-09T18:29:02.066Z,11.40
2023-05-09T18:31:28.511Z,10.10
2023-05-09T18:33:54.985Z,10.57
2023-05-09T18:36:22.687Z,9.63
2023-05-09T18:38:49.124Z,9.88
2023-05-09T18:41:16.949Z,8.55
2023-05-09T18:43:46.460Z,7.25
2023-05-09T18:46:17.177Z,8.52
2023-05-09T18:48:45.095Z,9.68
2023-05-09T18:51:11.895Z,8.00
2023-05-09T18:53:38.814Z,5.93
2023-05-09T18:56:05.302Z,7.05
2023-05-09T18:58:32.394Z,7.70
2023-05-09T19:00:58.953Z,8.20
2023-05-09T19:03:25.472Z,6.28
2023-05-09T19:05:51.867Z,5.93
2023-05-09T19:08:18.262Z,5.60
2023-05-09T19:10:44.872Z,6.78
2023-05-09T19:13:12.799Z,5.45
2023-05-09T19:15:40.515Z,5.72
2023-05-09T19:18:07.098Z,7.78
2023-05-09T19:20:33.539Z,5.05
2023-05-09T19:22:59.976Z,5.78
2023-05-09T19:25:26.577Z,5.40
2023-05-09T19:27:54.065Z,7.00
2023-05-09T19:30:20.827Z,4.60
2023-05-09T19:32:47.332Z,6.38
2023-05-09T19:35:13.876Z,5.30
2023-05-09T19:37:40.744Z,5.80
2023-05-09T19:40:07.592Z,6.47
2023-05-09T19:42:34.322Z,5.68
2023-05-09T19:45:00.967Z,6.10
2023-05-09T19:47:27.804Z,5.72
2023-05-09T19:49:54.218Z,6.32
2023-05-09T19:52:21.054Z,8.15
2023-05-09T19:54:47.455Z,5.72
2023-05-09T19:57:13.869Z,6.05
2023-05-09T19:59:40.237Z,6.93
2023-05-09T20:02:06.923Z,5.80
2023-05-09T20:04:36.871Z,6.85
2023-05-09T20:07:04.414Z,5.35
2023-05-09T20:09:32.744Z,6.32
2023-05-09T20:12:01.517Z,6.55
2023-05-09T20:14:27.896Z,6.88
2023-05-09T20:16:56.715Z,9.23
2023-05-09T20:19:23.271Z,7.13
2023-05-09T20:21:49.999Z,8.35
2023-05-09T20:24:19.097Z,8.32
2023-05-09T20:26:45.529Z,7.80
2023-05-09T20:29:11.937Z,9.02
2023-05-09T20:31:38.445Z,7.28
2023-05-09T20:34:04.846Z,8.85
2023-05-09T20:36:31.306Z,8.57
2023-05-09T20:38:57.799Z,10.13
2023-05-09T20:41:24.302Z,9.30
2023-05-09T20:43:50.813Z,10.48
2023-05-09T20:46:17.403Z,10.40
2023-05-09T20:48:44.272Z,12.18
2023-05-09T20:51:10.744Z,11.00
2023-05-09T20:53:37.712Z,11.50
2023-05-09T20:56:04.917Z,12.60
2023-05-09T20:58:32.719Z,13.38
2023-05-09T21:00:59.424Z,11.95
2023-05-09T21:03:26.016Z,11.93
2023-05-09T21:05:52.482Z,12.98
2023-05-09T21:08:19.234Z,12.10
2023-05-09T21:10:45.642Z,13.02
2023-05-09T21:13:12.119Z,10.02
2023-05-09T21:15:38.579Z,12.57
2023-05-09T21:18:05.065Z,13.75
2023-05-09T21:20:31.501Z,12.30
2023-05-09T21:22:57.888Z,13.57
2023-05-09T21:25:24.394Z,15.35
2023-05-09T21:27:50.772Z,13.65
2023-05-09T21:30:17.380Z,12.15
2023-05-09T21:32:43.991Z,12.13
2023-05-09T21:35:12.650Z,11.15
2023-05-09T21:37:39.314Z,12.07
2023-05-09T21:40:06.491Z,12.27
2023-05-09T21:42:32.995Z,10.35
2023-05-09T21:44:59.369Z,12.65
2023-05-09T21:47:26.058Z,11.10
2023-05-09T21:49:52.769Z,10.45
2023-05-09T21:52:19.387Z,11.68
2023-05-09T21:54:45.779Z,13.52
2023-05-09T21:57:12.151Z,12.20
2023-05-09T21:59:38.512Z,13.90
2023-05-09T22:02:05.267Z,13.60
2023-05-09T22:04:31.686Z,12.05
2023-05-09T22:06:58.077Z,12.93
2023-05-09T22:09:24.503Z,12.38
2023-05-09T22:11:52.720Z,13.93
2023-05-09T22:14:19.071Z,13.60
2023-05-09T22:16:45.650Z,15.35
2023-05-09T22:19:12.106Z,14.70
2023-05-09T22:21:38.550Z,15.13
2023-05-09T22:24:05.479Z,17.15
2023-05-09T22:26:33.026Z,16.48
2023-05-09T22:28:59.492Z,16.92
2023-05-09T22:31:26.186Z,17.13
2023-05-09T22:33:52.765Z,17.15
2023-05-09T22:36:19.660Z,17.60
2023-05-09T22:38:52.238Z,22.20
2023-05-09T22:41:18.867Z,23.13
2023-05-09T22:43:45.251Z,19.58
2023-05-09T22:46:11.935Z,20.13
2023-05-09T22:48:38.371Z,18.67
2023-05-09T22:51:04.845Z,22.08
2023-05-09T22:53:31.277Z,26.60
2023-05-09T22:55:57.813Z,23.00
2023-05-09T22:58:24.218Z,21.55
2023-05-09T23:00:50.842Z,25.42
2023-05-09T23:03:18.476Z,21.77
2023-05-09T23:05:44.920Z,26.25
2023-05-09T23:08:11.339Z,22.50
2023-05-09T23:10:37.879Z,31.70
2023-05-09T23:13:04.765Z,29.30
2023-05-09T23:15:31.214Z,37.80
2023-05-09T23:17:57.629Z,33.65
2023-05-09T23:20:24.054Z,30.92
2023-05-09T23:22:50.484Z,40.30
2023-05-09T23:25:16.865Z,41.40
2023-05-09T23:27:44.494Z,43.88
2023-05-09T23:30:11.275Z,38.35
2023-05-09T23:32:37.761Z,43.83
2023-05-09T23:35:04.742Z,43.05
2023-05-09T23:37:31.198Z,46.22
2023-05-09T23:39:58.168Z,47.40
2023-05-09T23:42:24.603Z,48.38
2023-05-09T23:44:51.234Z,45.13
2023-05-09T23:47:17.580Z,54.90
2023-05-09T23:49:43.937Z,41.22
2023-05-09T23:52:10.287Z,48.75
2023-05-09T23:54:37.289Z,43.70
2023-05-09T23:57:04.037Z,44.53
2023-05-09T23:59:30.443Z,50.53
